createdAt,value
2023-03-12T00:01:59.714Z,3.85
2023-03-12T00:04:26.845Z,4.19
2023-03-12T00:06:53.913Z,4.40
2023-03-12T00:09:20.497Z,4.57
2023-03-12T00:11:47.170Z,4.42
2023-03-12T00:14:13.760Z,4.50
2023-03-12T00:16:40.604Z,3.76
2023-03-12T00:19:07.214Z,4.09
2023-03-12T00:21:33.845Z,3.90
2023-03-12T00:24:00.401Z,3.99
2023-03-12T00:26:26.969Z,3.10
2023-03-12T00:28:53.841Z,2.67
2023-03-12T00:31:24.117Z,3.38
2023-03-12T00:33:50.776Z,3.23
2023-03-12T00:36:19.588Z,3.04
2023-03-12T00:38:46.186Z,3.34
2023-03-12T00:41:13.069Z,3.07
2023-03-12T00:43:39.713Z,3.19
2023-03-12T00:46:06.331Z,3.87
2023-03-12T00:48:32.968Z,4.31
2023-03-12T00:50:59.587Z,3.64
2023-03-12T00:53:26.312Z,3.76
2023-03-12T00:55:52.929Z,3.99
2023-03-12T00:58:19.516Z,4.29
2023-03-12T01:00:46.182Z,3.26
2023-03-12T01:03:13.381Z,4.06
2023-03-12T01:05:40.791Z,4.17
2023-03-12T01:08:08.841Z,3.86
2023-03-12T01:10:37.107Z,4.37
2023-03-12T01:13:03.720Z,4.45
2023-03-12T01:15:30.298Z,3.96
2023-03-12T01:17:56.977Z,3.88
2023-03-12T01:20:23.829Z,4.29
2023-03-12T01:22:51.233Z,4.51
2023-03-12T01:25:18.250Z,4.57
2023-03-12T01:27:45.251Z,4.69
2023-03-12T01:30:12.655Z,4.70
2023-03-12T01:32:39.245Z,4.77
2023-03-12T01:35:06.883Z,4.81
2023-03-12T01:37:33.913Z,4.81
2023-03-12T01:40:00.807Z,4.02
2023-03-12T01:42:27.402Z,3.44
2023-03-12T01:44:57.227Z,3.58
2023-03-12T01:47:25.102Z,4.25
2023-03-12T01:49:54.249Z,4.37
2023-03-12T01:52:30.718Z,4.05
2023-03-12T01:55:14.867Z,3.57
2023-03-12T01:57:48.307Z,3.32
2023-03-12T02:00:24.132Z,3.57
2023-03-12T02:02:52.288Z,3.96
2023-03-12T02:05:34.257Z,4.04
2023-03-12T02:08:00.893Z,4.10
2023-03-12T02:10:27.575Z,3.83
2023-03-12T02:12:54.290Z,3.59
2023-03-12T02:15:21.063Z,3.63
2023-03-12T02:17:47.633Z,3.72
2023-03-12T02:20:22.424Z,4.29
2023-03-12T02:23:04.065Z,4.39
2023-03-12T02:25:38.494Z,3.44
2023-03-12T02:28:08.746Z,3.40
2023-03-12T02:30:36.695Z,3.43
2023-03-12T02:33:07.402Z,3.29
2023-03-12T02:35:35.053Z,2.97
2023-03-12T02:38:02.163Z,3.20
2023-03-12T02:40:37.582Z,2.71
2023-03-12T02:43:06.741Z,3.20
2023-03-12T02:45:35.603Z,2.72
2023-03-12T02:48:03.064Z,3.00
2023-03-12T02:50:29.665Z,3.23
2023-03-12T02:52:56.255Z,3.85
2023-03-12T02:55:22.837Z,4.02
2023-03-12T02:57:49.419Z,4.36
2023-03-12T03:00:16.806Z,4.30
2023-03-12T03:02:43.649Z,4.50
2023-03-12T03:05:12.043Z,4.67
2023-03-12T03:07:39.036Z,4.65
2023-03-12T03:10:06.660Z,4.53
2023-03-12T03:12:34.884Z,3.95
2023-03-12T03:15:01.670Z,3.62
2023-03-12T03:17:28.653Z,3.34
2023-03-12T03:19:55.358Z,3.36
2023-03-12T03:22:22.785Z,3.69
2023-03-12T03:24:49.865Z,4.12
2023-03-12T03:27:16.438Z,4.39
2023-03-12T03:29:45.084Z,4.41
2023-03-12T03:32:11.921Z,3.91
2023-03-12T03:34:39.149Z,3.39
2023-03-12T03:37:05.814Z,3.25
2023-03-12T03:39:32.841Z,4.14
2023-03-12T03:41:59.369Z,4.36
2023-03-12T03:44:25.994Z,3.79
2023-03-12T03:46:53.482Z,3.87
2023-03-12T03:49:20.262Z,3.28
2023-03-12T03:51:47.128Z,2.84
2023-03-12T03:54:13.704Z,3.45
2023-03-12T03:56:41.178Z,4.09
2023-03-12T03:59:07.789Z,4.32
2023-03-12T04:01:34.751Z,4.49
2023-03-12T04:04:01.388Z,4.19
2023-03-12T04:06:29.761Z,4.03
2023-03-12T04:08:57.909Z,4.52
2023-03-12T04:11:26.137Z,4.68
2023-03-12T04:13:52.916Z,4.49
2023-03-12T04:16:19.588Z,3.82
2023-03-12T04:18:46.178Z,3.69
2023-03-12T04:21:13.902Z,3.90
2023-03-12T04:23:41.092Z,3.76
2023-03-12T04:26:07.926Z,3.17
2023-03-12T04:28:35.458Z,3.06
2023-03-12T04:31:04.998Z,3.28
2023-03-12T04:33:35.477Z,3.12
2023-03-12T04:36:02.222Z,3.49
2023-03-12T04:38:28.818Z,3.51
2023-03-12T04:41:14.913Z,4.28
2023-03-12T04:43:41.989Z,4.54
2023-03-12T04:46:09.365Z,4.69
2023-03-12T04:48:36.539Z,4.73
2023-03-12T04:51:04.511Z,4.84
2023-03-12T04:53:31.217Z,4.91
2023-03-12T04:55:57.916Z,4.93
2023-03-12T04:58:24.489Z,4.87
2023-03-12T05:00:51.349Z,4.83
2023-03-12T05:03:18.420Z,4.85
2023-03-12T05:05:45.542Z,4.85
2023-03-12T05:08:12.150Z,4.84
2023-03-12T05:10:38.767Z,4.72
2023-03-12T05:13:13.653Z,4.88
2023-03-12T05:15:40.200Z,5.00
2023-03-12T05:18:06.736Z,5.05
2023-03-12T05:20:35.325Z,4.97
2023-03-12T05:23:01.894Z,5.05
2023-03-12T05:25:28.409Z,5.05
2023-03-12T05:27:56.115Z,4.87
2023-03-12T05:30:22.719Z,4.96
2023-03-12T05:32:49.325Z,4.39
2023-03-12T05:35:15.932Z,4.24
2023-03-12T05:37:42.887Z,4.29
2023-03-12T05:40:13.067Z,4.25
2023-03-12T05:42:39.722Z,4.56
2023-03-12T05:45:07.096Z,4.84
2023-03-12T05:47:33.681Z,4.96
2023-03-12T05:50:00.233Z,5.05
2023-03-12T05:52:26.878Z,4.97
2023-03-12T05:54:53.620Z,3.85
2023-03-12T05:57:20.296Z,3.62
2023-03-12T05:59:46.863Z,3.87
2023-03-12T06:02:13.475Z,4.42
2023-03-12T06:04:39.993Z,4.55
2023-03-12T06:07:06.739Z,4.99
2023-03-12T06:09:33.268Z,5.01
2023-03-12T06:11:59.857Z,5.00
2023-03-12T06:14:26.457Z,5.15
2023-03-12T06:16:53.101Z,5.17
2023-03-12T06:19:19.721Z,5.27
2023-03-12T06:21:46.254Z,4.98
2023-03-12T06:24:12.920Z,4.73
2023-03-12T06:26:40.497Z,4.24
2023-03-12T06:29:07.262Z,4.19
2023-03-12T06:31:34.976Z,4.19
2023-03-12T06:34:03.333Z,4.52
2023-03-12T06:36:29.918Z,4.92
2023-03-12T06:38:57.334Z,5.10
2023-03-12T06:41:24.046Z,5.01
2023-03-12T06:43:50.870Z,5.25
2023-03-12T06:46:21.622Z,5.41
2023-03-12T06:48:48.779Z,5.48
2023-03-12T06:51:16.452Z,5.33
2023-03-12T06:53:43.309Z,4.87
2023-03-12T06:56:10.680Z,5.23
2023-03-12T06:58:37.397Z,5.14
2023-03-12T07:01:04.636Z,5.10
2023-03-12T07:03:31.450Z,4.87
2023-03-12T07:05:58.535Z,4.41
2023-03-12T07:08:26.108Z,3.89
2023-03-12T07:10:52.598Z,3.98
2023-03-12T07:13:19.192Z,4.17
2023-03-12T07:15:46.501Z,4.54
2023-03-12T07:18:13.351Z,5.15
2023-03-12T07:20:42.719Z,5.38
2023-03-12T07:23:10.055Z,4.99
2023-03-12T07:25:41.539Z,5.68
2023-03-12T07:28:09.299Z,5.06
2023-03-12T07:30:36.407Z,4.91
2023-03-12T07:33:08.200Z,4.38
2023-03-12T07:35:35.533Z,4.12
2023-03-12T07:38:02.942Z,4.63
2023-03-12T07:40:29.551Z,4.77
2023-03-12T07:42:56.867Z,4.99
2023-03-12T07:45:24.273Z,4.52
2023-03-12T07:47:51.701Z,5.17
2023-03-12T07:50:19.330Z,4.85
2023-03-12T07:52:46.898Z,3.60
2023-03-12T07:55:13.807Z,4.34
2023-03-12T07:57:40.474Z,3.68
2023-03-12T08:00:08.810Z,4.52
2023-03-12T08:02:36.150Z,4.39
2023-03-12T08:05:03.057Z,3.77
2023-03-12T08:07:32.432Z,4.19
2023-03-12T08:09:59.934Z,3.96
2023-03-12T08:12:27.086Z,4.21
2023-03-12T08:14:54.772Z,4.01
2023-03-12T08:17:21.839Z,4.30
2023-03-12T08:19:48.452Z,4.06
2023-03-12T08:22:14.984Z,4.16
2023-03-12T08:24:41.906Z,3.37
2023-03-12T08:27:08.762Z,3.59
2023-03-12T08:29:35.360Z,3.93
2023-03-12T08:32:05.207Z,3.59
2023-03-12T08:34:33.929Z,4.45
2023-03-12T08:37:01.045Z,3.70
2023-03-12T08:39:28.612Z,3.53
2023-03-12T08:41:55.499Z,3.46
2023-03-12T08:44:26.143Z,3.22
2023-03-12T08:46:53.064Z,3.28
2023-03-12T08:49:20.984Z,4.27
2023-03-12T08:51:47.937Z,3.65
2023-03-12T08:54:14.926Z,4.02
2023-03-12T08:56:44.583Z,3.78
2023-03-12T08:59:11.721Z,4.34
2023-03-12T09:01:38.685Z,4.09
2023-03-12T09:04:06.252Z,4.81
2023-03-12T09:06:35.236Z,4.99
2023-03-12T09:09:05.450Z,4.21
2023-03-12T09:11:33.777Z,5.28
2023-03-12T09:16:48.351Z,5.44
2023-03-12T09:19:15.108Z,5.08
2023-03-12T09:21:44.113Z,5.12
2023-03-12T09:24:11.610Z,4.63
2023-03-12T09:26:38.103Z,3.92
2023-03-12T09:29:04.780Z,3.54
2023-03-12T09:31:31.437Z,3.95
2023-03-12T09:33:57.954Z,3.59
2023-03-12T09:36:24.514Z,3.73
2023-03-12T09:38:51.011Z,4.31
2023-03-12T09:41:27.669Z,3.56
2023-03-12T09:44:03.076Z,3.61
2023-03-12T09:46:36.921Z,4.26
2023-03-12T09:49:10.665Z,3.50
2023-03-12T09:51:47.170Z,3.93
2023-03-12T09:54:29.734Z,3.67
2023-03-12T09:57:05.290Z,3.38
2023-03-12T09:59:32.344Z,3.92
2023-03-12T10:02:02.803Z,4.86
2023-03-12T10:04:56.626Z,3.81
2023-03-12T10:07:34.050Z,3.52
2023-03-12T10:10:17.094Z,4.09
2023-03-12T10:12:59.070Z,4.13
2023-03-12T10:15:45.261Z,3.83
2023-03-12T10:18:27.537Z,3.97
2023-03-12T10:21:35.151Z,3.92
2023-03-12T10:24:16.392Z,3.57
2023-03-12T10:26:45.692Z,3.30
2023-03-12T10:29:45.510Z,3.19
2023-03-12T10:32:12.085Z,3.81
2023-03-12T10:34:54.307Z,3.56
2023-03-12T10:37:44.107Z,3.51
2023-03-12T10:40:22.447Z,3.86
2023-03-12T10:42:49.619Z,3.46
2023-03-12T10:45:46.639Z,3.84
2023-03-12T10:48:21.693Z,4.50
2023-03-12T10:51:07.014Z,4.24
2023-03-12T10:53:41.281Z,3.46
2023-03-12T10:56:10.615Z,3.72
2023-03-12T10:59:01.549Z,3.84
2023-03-12T11:01:32.640Z,4.41
2023-03-12T11:04:16.531Z,4.27
2023-03-12T11:06:43.629Z,4.29
2023-03-12T11:09:17.282Z,4.12
2023-03-12T11:11:48.566Z,4.12
2023-03-12T11:14:26.901Z,5.22
2023-03-12T11:16:54.945Z,5.58
2023-03-12T11:19:40.622Z,4.62
2023-03-12T11:22:13.815Z,4.08
2023-03-12T11:24:56.813Z,4.55
2023-03-12T11:27:38.595Z,4.79
2023-03-12T11:30:09.924Z,4.79
2023-03-12T11:32:40.992Z,4.46
2023-03-12T11:35:12.542Z,5.03
2023-03-12T11:37:56.305Z,4.74
2023-03-12T11:40:38.085Z,5.14
2023-03-12T11:43:39.986Z,5.26
2023-03-12T11:46:59.094Z,4.96
2023-03-12T11:49:58.573Z,5.49
2023-03-12T11:52:52.949Z,5.31
2023-03-12T11:55:43.969Z,5.35
2023-03-12T11:58:22.411Z,5.31
2023-03-12T12:01:05.812Z,5.30
2023-03-12T12:03:51.812Z,5.52
2023-03-12T12:06:36.864Z,5.70
2023-03-12T12:09:26.230Z,6.01
2023-03-12T12:12:16.842Z,5.68
2023-03-12T12:15:31.465Z,5.63
2023-03-12T12:18:21.201Z,6.60
2023-03-12T12:21:01.308Z,6.44
2023-03-12T12:23:33.825Z,6.31
2023-03-12T12:26:13.214Z,6.72
2023-03-12T12:29:17.401Z,6.76
2023-03-12T12:32:15.295Z,8.00
2023-03-12T12:35:09.330Z,8.26
2023-03-12T12:37:54.388Z,7.05
2023-03-12T12:40:41.453Z,6.69
2023-03-12T12:43:23.929Z,7.21
2023-03-12T12:45:52.898Z,6.92
2023-03-12T12:48:32.122Z,7.33
2023-03-12T12:51:00.874Z,7.21
2023-03-12T12:53:37.612Z,7.49
2023-03-12T12:56:23.017Z,7.33
2023-03-12T12:59:10.881Z,7.87
2023-03-12T13:01:38.368Z,9.11
2023-03-12T13:04:24.883Z,9.33
2023-03-12T13:06:57.857Z,9.84
2023-03-12T13:09:36.983Z,10.33
2023-03-12T13:12:11.769Z,9.09
2023-03-12T13:14:41.729Z,9.13
2023-03-12T13:17:21.408Z,9.25
2023-03-12T13:19:55.541Z,9.70
2023-03-12T13:23:17.128Z,9.57
2023-03-12T13:25:57.145Z,10.31
2023-03-12T13:28:30.066Z,10.07
2023-03-12T13:30:58.541Z,9.13
2023-03-12T13:33:48.172Z,9.26
2023-03-12T13:36:23.125Z,9.71
2023-03-12T13:39:17.347Z,9.04
2023-03-12T13:41:52.124Z,9.57
2023-03-12T13:44:28.887Z,9.31
2023-03-12T13:47:04.814Z,9.75
2023-03-12T13:49:40.748Z,9.99
2023-03-12T13:52:27.693Z,9.45
2023-03-12T13:55:16.198Z,9.86
2023-03-12T13:57:49.610Z,9.62
2023-03-12T14:00:28.674Z,9.39
2023-03-12T14:03:01.065Z,9.94
2023-03-12T14:05:29.066Z,9.76
2023-03-12T14:08:17.603Z,10.11
2023-03-12T14:11:17.953Z,9.70
2023-03-12T14:13:53.597Z,10.14
2023-03-12T14:16:30.776Z,10.49
2023-03-12T14:18:57.903Z,10.16
2023-03-12T14:21:33.285Z,10.21
2023-03-12T14:24:00.550Z,9.68
2023-03-12T14:26:31.512Z,10.20
2023-03-12T14:29:41.854Z,9.82
2023-03-12T14:32:22.678Z,9.74
2023-03-12T14:35:11.236Z,10.39
2023-03-12T14:37:44.858Z,10.74
2023-03-12T14:40:26.701Z,10.69
2023-03-12T14:42:53.392Z,10.80
2023-03-12T14:45:23.101Z,10.63
2023-03-12T14:47:57.816Z,11.12
2023-03-12T14:50:30.963Z,11.09
2023-03-12T14:53:12.354Z,11.26
2023-03-12T14:55:38.982Z,10.97
2023-03-12T14:58:14.539Z,10.82
2023-03-12T15:00:43.591Z,11.25
2023-03-12T15:03:15.835Z,11.36
2023-03-12T15:05:50.023Z,10.90
2023-03-12T15:08:17.603Z,11.17
2023-03-12T15:10:50.068Z,11.57
2023-03-12T15:13:17.220Z,11.51
2023-03-12T15:15:47.132Z,11.71
2023-03-12T15:18:17.571Z,11.85
2023-03-12T15:20:45.578Z,11.78
2023-03-12T15:23:13.687Z,11.76
2023-03-12T15:25:42.466Z,11.70
2023-03-12T15:28:15.225Z,11.76
2023-03-12T15:30:43.568Z,11.47
2023-03-12T15:33:10.185Z,11.71
2023-03-12T15:35:40.051Z,11.96
2023-03-12T15:38:14.990Z,11.58
2023-03-12T15:40:42.047Z,11.40
2023-03-12T15:43:19.449Z,11.88
2023-03-12T15:45:46.732Z,11.78
2023-03-12T15:48:26.838Z,11.87
2023-03-12T15:50:53.577Z,11.93
2023-03-12T15:53:20.214Z,12.17
2023-03-12T15:56:05.754Z,12.15
2023-03-12T15:58:34.993Z,12.37
2023-03-12T16:01:16.374Z,12.28
2023-03-12T16:03:45.489Z,11.69
2023-03-12T16:06:17.517Z,11.86
2023-03-12T16:08:52.932Z,11.63
2023-03-12T16:11:22.670Z,11.64
2023-03-12T16:13:52.007Z,11.64
2023-03-12T16:16:18.662Z,11.12
2023-03-12T16:18:45.312Z,10.72
2023-03-12T16:21:14.518Z,10.67
2023-03-12T16:23:41.126Z,11.25
2023-03-12T16:26:07.833Z,11.69
2023-03-12T16:28:40.155Z,11.05
2023-03-12T16:31:16.553Z,11.29
2023-03-12T16:33:54.658Z,11.34
2023-03-12T16:36:24.044Z,11.18
2023-03-12T16:38:57.947Z,11.61
2023-03-12T16:41:30.542Z,11.88
2023-03-12T16:44:01.910Z,11.99
2023-03-12T16:46:36.194Z,11.97
2023-03-12T16:49:04.183Z,11.94
2023-03-12T16:51:30.819Z,11.89
2023-03-12T16:54:10.856Z,11.63
2023-03-12T16:56:50.973Z,11.78
2023-03-12T16:59:33.287Z,11.88
2023-03-12T17:01:59.942Z,11.68
2023-03-12T17:04:26.563Z,11.83
2023-03-12T17:06:53.103Z,11.55
2023-03-12T17:09:19.905Z,11.74
2023-03-12T17:11:49.874Z,11.60
2023-03-12T17:14:22.322Z,11.61
2023-03-12T17:16:49.206Z,11.52
2023-03-12T17:19:16.032Z,11.35
2023-03-12T17:21:43.395Z,11.22
2023-03-12T17:24:14.088Z,10.77
2023-03-12T17:26:42.162Z,10.73
2023-03-12T17:29:08.852Z,10.45
2023-03-12T17:31:37.513Z,10.90
2023-03-12T17:34:04.605Z,11.02
2023-03-12T17:36:31.217Z,10.91
2023-03-12T17:38:57.874Z,10.69
2023-03-12T17:41:26.759Z,10.64
2023-03-12T17:43:54.859Z,10.72
2023-03-12T17:46:21.862Z,10.64
2023-03-12T17:48:48.515Z,10.94
2023-03-12T17:51:15.023Z,11.08
2023-03-12T17:53:41.871Z,10.80
2023-03-12T17:56:09.174Z,10.66
2023-03-12T17:58:35.980Z,10.79
2023-03-12T18:01:02.653Z,10.67
2023-03-12T18:03:29.404Z,10.72
2023-03-12T18:05:56.139Z,10.82
2023-03-12T18:08:22.736Z,11.09
2023-03-12T18:10:49.409Z,11.15
2023-03-12T18:13:16.248Z,11.02
2023-03-12T18:15:42.834Z,11.34
2023-03-12T18:18:09.555Z,11.28
2023-03-12T18:20:39.717Z,11.29
2023-03-12T18:23:07.043Z,11.43
2023-03-12T18:25:33.689Z,11.62
2023-03-12T18:28:00.294Z,11.70
2023-03-12T18:30:28.160Z,11.43
2023-03-12T18:32:54.919Z,11.37
2023-03-12T18:35:22.738Z,11.59
2023-03-12T18:37:51.829Z,11.78
2023-03-12T18:40:18.667Z,11.90
2023-03-12T18:42:45.276Z,11.92
2023-03-12T18:45:12.503Z,11.96
2023-03-12T18:47:39.515Z,12.11
2023-03-12T18:50:10.167Z,12.28
2023-03-12T18:52:36.836Z,12.35
2023-03-12T18:55:04.447Z,12.30
2023-03-12T18:57:31.804Z,12.00
2023-03-12T18:59:59.338Z,12.23
2023-03-12T19:02:26.194Z,12.15
2023-03-12T19:04:55.858Z,12.27
2023-03-12T19:07:23.147Z,12.52
2023-03-12T19:09:50.244Z,12.30
2023-03-12T19:12:16.791Z,12.14
2023-03-12T19:14:43.379Z,12.15
2023-03-12T19:17:09.949Z,12.14
2023-03-12T19:19:36.534Z,12.25
2023-03-12T19:22:04.548Z,12.35
2023-03-12T19:24:31.711Z,12.15
2023-03-12T19:26:58.515Z,12.15
2023-03-12T19:29:25.238Z,12.02
2023-03-12T19:31:51.878Z,12.65
2023-03-12T19:34:20.902Z,12.61
2023-03-12T19:36:47.464Z,12.16
2023-03-12T19:39:21.133Z,12.56
2023-03-12T19:41:48.308Z,12.38
2023-03-12T19:44:14.938Z,12.10
2023-03-12T19:46:43.154Z,12.11
2023-03-12T19:49:09.790Z,12.04
2023-03-12T19:51:36.347Z,12.20
2023-03-12T19:54:02.958Z,12.29
2023-03-12T19:56:29.546Z,12.49
2023-03-12T19:58:56.188Z,12.49
2023-03-12T20:01:23.013Z,12.13
2023-03-12T20:03:49.652Z,12.30
2023-03-12T20:06:19.157Z,12.19
2023-03-12T20:08:45.730Z,12.41
2023-03-12T20:11:12.508Z,12.25
2023-03-12T20:13:39.277Z,12.27
2023-03-12T20:16:07.576Z,12.31
2023-03-12T20:18:34.516Z,12.28
2023-03-12T20:21:01.184Z,11.92
2023-03-12T20:23:27.751Z,12.05
2023-03-12T20:25:54.406Z,11.97
2023-03-12T20:28:20.998Z,12.66
2023-03-12T20:30:48.521Z,12.05
2023-03-12T20:33:15.207Z,12.31
2023-03-12T20:35:41.797Z,12.35
2023-03-12T20:38:08.563Z,12.30
2023-03-12T20:40:35.290Z,12.22
2023-03-12T20:43:05.120Z,12.37
2023-03-12T20:45:33.381Z,12.45
2023-03-12T20:48:00.750Z,12.36
2023-03-12T20:50:28.268Z,12.23
2023-03-12T20:52:54.917Z,12.24
2023-03-12T20:55:21.835Z,12.32
2023-03-12T20:57:48.746Z,12.03
2023-03-12T21:00:16.075Z,12.01
2023-03-12T21:02:42.635Z,11.88
2023-03-12T21:05:11.416Z,12.67
2023-03-12T21:07:38.070Z,12.11
2023-03-12T21:10:05.229Z,12.07
2023-03-12T21:12:31.783Z,12.37
2023-03-12T21:15:06.260Z,12.22
2023-03-12T21:17:33.979Z,12.02
2023-03-12T21:20:01.729Z,11.98
2023-03-12T21:22:30.484Z,11.98
2023-03-12T21:24:57.663Z,12.10
2023-03-12T21:27:24.450Z,12.16
2023-03-12T21:29:52.683Z,12.17
2023-03-12T21:32:20.808Z,12.10
2023-03-12T21:34:48.030Z,11.93
2023-03-12T21:37:15.773Z,12.01
2023-03-12T21:39:43.089Z,12.49
2023-03-12T21:42:09.669Z,12.35
2023-03-12T21:44:37.105Z,12.23
2023-03-12T21:47:06.634Z,12.26
2023-03-12T21:49:34.696Z,12.21
2023-03-12T21:52:02.315Z,12.05
2023-03-12T21:54:38.236Z,12.46
2023-03-12T21:57:05.216Z,12.32
2023-03-12T21:59:32.408Z,12.17
2023-03-12T22:01:59.443Z,12.08
2023-03-12T22:04:26.192Z,12.09
2023-03-12T22:06:52.740Z,12.14
2023-03-12T22:09:19.376Z,12.60
2023-03-12T22:11:45.921Z,12.47
2023-03-12T22:14:15.517Z,12.09
2023-03-12T22:16:42.000Z,11.93
2023-03-12T22:19:09.177Z,11.84
2023-03-12T22:21:35.776Z,12.15
2023-03-12T22:24:02.402Z,11.48
2023-03-12T22:26:29.271Z,11.64
2023-03-12T22:28:57.668Z,12.43
2023-03-12T22:31:26.739Z,11.99
2023-03-12T22:33:53.468Z,12.15
2023-03-12T22:36:21.250Z,12.76
2023-03-12T22:38:48.013Z,12.11
2023-03-12T22:41:23.300Z,12.14
2023-03-12T22:43:51.667Z,12.11
2023-03-12T22:46:19.921Z,12.05
2023-03-12T22:48:48.453Z,12.60
2023-03-12T22:51:15.046Z,12.18
2023-03-12T22:53:41.645Z,11.74
2023-03-12T22:56:11.209Z,11.97
2023-03-12T22:58:37.897Z,11.92
2023-03-12T23:01:07.166Z,11.99
2023-03-12T23:03:35.094Z,11.61
2023-03-12T23:06:03.086Z,12.32
2023-03-12T23:08:30.331Z,12.18
2023-03-12T23:11:02.490Z,12.22
2023-03-12T23:13:31.632Z,12.45
2023-03-12T23:16:10.146Z,11.74
2023-03-12T23:18:37.193Z,11.89
2023-03-12T23:21:06.546Z,11.64
2023-03-12T23:23:33.983Z,11.83
2023-03-12T23:26:00.908Z,11.53
2023-03-12T23:28:29.055Z,11.99
2023-03-12T23:31:01.337Z,11.67
2023-03-12T23:33:29.369Z,12.00
2023-03-12T23:36:01.555Z,11.45
2023-03-12T23:38:29.330Z,11.67
2023-03-12T23:41:00.790Z,12.31
2023-03-12T23:43:27.730Z,11.83
2023-03-12T23:45:58.827Z,11.78
2023-03-12T23:48:27.370Z,11.99
2023-03-12T23:50:54.540Z,11.97
2023-03-12T23:53:21.158Z,12.03
2023-03-12T23:55:58.382Z,11.91
2023-03-12T23:58:25.443Z,11.95
